sensor_id;sensor_type;location;lat;lon;timestamp;P1;durP1;ratioP1;P2;durP2;ratioP2
82787;SDS011;72529;51.786;4.662;2024-01-15T00:02:07;3.23;;;2.19;;
82787;SDS011;72529;51.786;4.662;2024-01-15T00:04:39;3.59;;;2.40;;
82787;SDS011;72529;51.786;4.662;2024-01-15T00:07:06;3.47;;;2.29;;
82787;SDS011;72529;51.786;4.662;2024-01-15T00:09:32;4.11;;;2.68;;
82787;SDS011;72529;51.786;4.662;2024-01-15T00:11:58;4.16;;;2.72;;
82787;SDS011;72529;51.786;4.662;2024-01-15T00:14:24;3.78;;;2.49;;
82787;SDS011;72529;51.786;4.662;2024-01-15T00:16:50;3.42;;;2.25;;
82787;SDS011;72529;51.786;4.662;2024-01-15T00:19:16;3.36;;;2.21;;
82787;SDS011;72529;51.786;4.662;2024-01-15T00:21:44;3.65;;;2.38;;
82787;SDS011;72529;51.786;4.662;2024-01-15T00:24:10;3.61;;;2.34;;
82787;SDS011;72529;51.786;4.662;2024-01-15T00:26:35;4.41;;;2.85;;
82787;SDS011;72529;51.786;4.662;2024-01-15T00:29:01;4.21;;;2.71;;
82787;SDS011;72529;51.786;4.662;2024-01-15T00:31:27;4.52;;;2.91;;
82787;SDS011;72529;51.786;4.662;2024-01-15T00:33:54;5.02;;;3.25;;
82787;SDS011;72529;51.786;4.662;2024-01-15T00:36:20;4.55;;;2.95;;
82787;SDS011;72529;51.786;4.662;2024-01-15T00:38:46;4.24;;;2.74;;
82787;SDS011;72529;51.786;4.662;2024-01-15T00:41:12;4.34;;;2.85;;
82787;SDS011;72529;51.786;4.662;2024-01-15T00:43:38;3.74;;;2.51;;
82787;SDS011;72529;51.786;4.662;2024-01-15T00:46:04;3.72;;;2.50;;
82787;SDS011;72529;51.786;4.662;2024-01-15T00:48:29;3.86;;;2.58;;
82787;SDS011;72529;51.786;4.662;2024-01-15T00:50:55;3.79;;;2.58;;
82787;SDS011;72529;51.786;4.662;2024-01-15T00:53:20;3.72;;;2.52;;
82787;SDS011;72529;51.786;4.662;2024-01-15T00:55:48;4.50;;;2.99;;
82787;SDS011;72529;51.786;4.662;2024-01-15T00:58:14;4.65;;;3.06;;
82787;SDS011;72529;51.786;4.662;2024-01-15T01:00:39;5.43;;;3.55;;
82787;SDS011;72529;51.786;4.662;2024-01-15T01:03:06;5.67;;;3.65;;
82787;SDS011;72529;51.786;4.662;2024-01-15T01:05:32;6.19;;;3.95;;
82787;SDS011;72529;51.786;4.662;2024-01-15T01:07:58;7.24;;;4.60;;
82787;SDS011;72529;51.786;4.662;2024-01-15T01:10:24;6.16;;;3.87;;
82787;SDS011;72529;51.786;4.662;2024-01-15T01:12:49;5.44;;;3.41;;
82787;SDS011;72529;51.786;4.662;2024-01-15T01:15:14;6.27;;;3.92;;
82787;SDS011;72529;51.786;4.662;2024-01-15T01:17:40;5.54;;;3.44;;
82787;SDS011;72529;51.786;4.662;2024-01-15T01:20:06;6.31;;;3.90;;
82787;SDS011;72529;51.786;4.662;2024-01-15T01:22:33;6.72;;;4.10;;
82787;SDS011;72529;51.786;4.662;2024-01-15T01:24:59;6.00;;;3.68;;
82787;SDS011;72529;51.786;4.662;2024-01-15T01:27:24;6.90;;;4.25;;
82787;SDS011;72529;51.786;4.662;2024-01-15T01:29:50;7.32;;;4.50;;
82787;SDS011;72529;51.786;4.662;2024-01-15T01:32:15;6.38;;;3.94;;
82787;SDS011;72529;51.786;4.662;2024-01-15T01:34:41;6.78;;;4.21;;
82787;SDS011;72529;51.786;4.662;2024-01-15T01:37:07;6.43;;;4.01;;
82787;SDS011;72529;51.786;4.662;2024-01-15T01:39:33;6.69;;;4.16;;
82787;SDS011;72529;51.786;4.662;2024-01-15T01:41:59;6.87;;;4.29;;
82787;SDS011;72529;51.786;4.662;2024-01-15T01:44:24;6.36;;;3.99;;
82787;SDS011;72529;51.786;4.662;2024-01-15T01:46:50;6.28;;;3.96;;
82787;SDS011;72529;51.786;4.662;2024-01-15T01:49:15;5.41;;;3.43;;
82787;SDS011;72529;51.786;4.662;2024-01-15T01:51:42;5.09;;;3.26;;
82787;SDS011;72529;51.786;4.662;2024-01-15T01:54:08;4.79;;;3.08;;
82787;SDS011;72529;51.786;4.662;2024-01-15T01:56:37;4.87;;;3.15;;
82787;SDS011;72529;51.786;4.662;2024-01-15T01:59:03;4.97;;;3.22;;
82787;SDS011;72529;51.786;4.662;2024-01-15T02:01:31;5.42;;;3.51;;
82787;SDS011;72529;51.786;4.662;2024-01-15T02:03:57;5.61;;;3.63;;
82787;SDS011;72529;51.786;4.662;2024-01-15T02:06:23;4.81;;;3.11;;
82787;SDS011;72529;51.786;4.662;2024-01-15T02:08:49;3.97;;;2.55;;
82787;SDS011;72529;51.786;4.662;2024-01-15T02:11:15;3.93;;;2.52;;
82787;SDS011;72529;51.786;4.662;2024-01-15T02:13:41;2.19;;;1.40;;
82787;SDS011;72529;51.786;4.662;2024-01-15T02:16:07;2.23;;;1.41;;
82787;SDS011;72529;51.786;4.662;2024-01-15T02:18:45;2.28;;;1.43;;
82787;SDS011;72529;51.786;4.662;2024-01-15T02:21:11;2.59;;;1.61;;
82787;SDS011;72529;51.786;4.662;2024-01-15T02:23:37;3.46;;;2.14;;
82787;SDS011;72529;51.786;4.662;2024-01-15T02:26:04;3.71;;;2.26;;
82787;SDS011;72529;51.786;4.662;2024-01-15T02:28:30;4.00;;;2.45;;
82787;SDS011;72529;51.786;4.662;2024-01-15T02:30:57;4.47;;;2.71;;
82787;SDS011;72529;51.786;4.662;2024-01-15T02:33:23;4.71;;;2.85;;
82787;SDS011;72529;51.786;4.662;2024-01-15T02:35:48;4.77;;;2.89;;
82787;SDS011;72529;51.786;4.662;2024-01-15T02:38:15;4.42;;;2.68;;
82787;SDS011;72529;51.786;4.662;2024-01-15T02:40:41;4.86;;;2.96;;
82787;SDS011;72529;51.786;4.662;2024-01-15T02:43:08;4.35;;;2.66;;
82787;SDS011;72529;51.786;4.662;2024-01-15T02:45:34;4.81;;;2.95;;
82787;SDS011;72529;51.786;4.662;2024-01-15T02:47:59;5.12;;;3.11;;
82787;SDS011;72529;51.786;4.662;2024-01-15T02:50:25;5.89;;;3.60;;
82787;SDS011;72529;51.786;4.662;2024-01-15T02:52:51;5.57;;;3.44;;
82787;SDS011;72529;51.786;4.662;2024-01-15T02:55:16;5.09;;;3.12;;
82787;SDS011;72529;51.786;4.662;2024-01-15T02:57:41;5.85;;;3.59;;
82787;SDS011;72529;51.786;4.662;2024-01-15T03:00:07;6.01;;;3.69;;
82787;SDS011;72529;51.786;4.662;2024-01-15T03:02:35;5.94;;;3.65;;
82787;SDS011;72529;51.786;4.662;2024-01-15T03:05:04;5.99;;;3.66;;
82787;SDS011;72529;51.786;4.662;2024-01-15T03:07:29;5.97;;;3.68;;
82787;SDS011;72529;51.786;4.662;2024-01-15T03:09:55;5.86;;;3.62;;
82787;SDS011;72529;51.786;4.662;2024-01-15T03:12:20;5.70;;;3.55;;
82787;SDS011;72529;51.786;4.662;2024-01-15T03:14:46;6.01;;;3.76;;
82787;SDS011;72529;51.786;4.662;2024-01-15T03:17:11;6.70;;;4.12;;
82787;SDS011;72529;51.786;4.662;2024-01-15T03:19:37;6.35;;;3.90;;
82787;SDS011;72529;51.786;4.662;2024-01-15T03:22:02;5.00;;;3.08;;
82787;SDS011;72529;51.786;4.662;2024-01-15T03:24:29;4.78;;;2.98;;
82787;SDS011;72529;51.786;4.662;2024-01-15T03:26:54;4.28;;;2.69;;
82787;SDS011;72529;51.786;4.662;2024-01-15T03:29:20;2.56;;;1.60;;
82787;SDS011;72529;51.786;4.662;2024-01-15T03:31:47;2.74;;;1.71;;
82787;SDS011;72529;51.786;4.662;2024-01-15T03:34:12;2.78;;;1.72;;
82787;SDS011;72529;51.786;4.662;2024-01-15T03:36:37;2.92;;;1.80;;
82787;SDS011;72529;51.786;4.662;2024-01-15T03:39:03;2.78;;;1.72;;
82787;SDS011;72529;51.786;4.662;2024-01-15T03:41:28;2.82;;;1.78;;
82787;SDS011;72529;51.786;4.662;2024-01-15T03:43:54;2.16;;;1.38;;
82787;SDS011;72529;51.786;4.662;2024-01-15T03:46:19;2.21;;;1.41;;
82787;SDS011;72529;51.786;4.662;2024-01-15T03:48:44;2.12;;;1.36;;
82787;SDS011;72529;51.786;4.662;2024-01-15T03:51:10;2.46;;;1.62;;
82787;SDS011;72529;51.786;4.662;2024-01-15T03:53:35;2.98;;;2.01;;
82787;SDS011;72529;51.786;4.662;2024-01-15T03:56:01;2.35;;;1.64;;
82787;SDS011;72529;51.786;4.662;2024-01-15T03:58:26;1.65;;;1.16;;
82787;SDS011;72529;51.786;4.662;2024-01-15T04:00:52;2.06;;;1.42;;
82787;SDS011;72529;51.786;4.662;2024-01-15T04:03:17;1.91;;;1.31;;
82787;SDS011;72529;51.786;4.662;2024-01-15T04:05:43;1.77;;;1.19;;
82787;SDS011;72529;51.786;4.662;2024-01-15T04:08:08;2.10;;;1.38;;
82787;SDS011;72529;51.786;4.662;2024-01-15T04:10:34;2.83;;;1.85;;
82787;SDS011;72529;51.786;4.662;2024-01-15T04:12:59;2.90;;;1.88;;
82787;SDS011;72529;51.786;4.662;2024-01-15T04:15:26;3.59;;;2.32;;
82787;SDS011;72529;51.786;4.662;2024-01-15T04:17:52;2.65;;;1.71;;
82787;SDS011;72529;51.786;4.662;2024-01-15T04:20:18;2.91;;;1.89;;
82787;SDS011;72529;51.786;4.662;2024-01-15T04:22:43;2.43;;;1.58;;
82787;SDS011;72529;51.786;4.662;2024-01-15T04:25:09;3.19;;;2.06;;
82787;SDS011;72529;51.786;4.662;2024-01-15T04:27:35;3.03;;;1.96;;
82787;SDS011;72529;51.786;4.662;2024-01-15T04:30:00;3.57;;;2.30;;
82787;SDS011;72529;51.786;4.662;2024-01-15T04:32:26;2.05;;;1.32;;
82787;SDS011;72529;51.786;4.662;2024-01-15T04:34:51;1.84;;;1.19;;
82787;SDS011;72529;51.786;4.662;2024-01-15T04:37:16;1.49;;;0.96;;
82787;SDS011;72529;51.786;4.662;2024-01-15T04:39:42;1.33;;;0.86;;
82787;SDS011;72529;51.786;4.662;2024-01-15T04:42:07;1.19;;;0.77;;
82787;SDS011;72529;51.786;4.662;2024-01-15T04:44:33;1.71;;;1.11;;
82787;SDS011;72529;51.786;4.662;2024-01-15T04:46:58;2.13;;;1.38;;
82787;SDS011;72529;51.786;4.662;2024-01-15T04:49:23;2.03;;;1.33;;
82787;SDS011;72529;51.786;4.662;2024-01-15T04:51:52;1.58;;;1.06;;
82787;SDS011;72529;51.786;4.662;2024-01-15T04:54:18;1.61;;;1.11;;
82787;SDS011;72529;51.786;4.662;2024-01-15T04:56:44;1.54;;;1.06;;
82787;SDS011;72529;51.786;4.662;2024-01-15T04:59:10;1.82;;;1.23;;
82787;SDS011;72529;51.786;4.662;2024-01-15T05:01:35;1.67;;;1.14;;
82787;SDS011;72529;51.786;4.662;2024-01-15T05:04:01;1.68;;;1.16;;
82787;SDS011;72529;51.786;4.662;2024-01-15T05:06:26;1.87;;;1.31;;
82787;SDS011;72529;51.786;4.662;2024-01-15T05:08:52;1.59;;;1.13;;
82787;SDS011;72529;51.786;4.662;2024-01-15T05:11:17;1.89;;;1.34;;
82787;SDS011;72529;51.786;4.662;2024-01-15T05:13:43;2.01;;;1.43;;
82787;SDS011;72529;51.786;4.662;2024-01-15T05:16:08;1.59;;;1.15;;
82787;SDS011;72529;51.786;4.662;2024-01-15T05:18:34;2.09;;;1.53;;
82787;SDS011;72529;51.786;4.662;2024-01-15T05:20:59;2.14;;;1.59;;
82787;SDS011;72529;51.786;4.662;2024-01-15T05:23:25;2.02;;;1.53;;
82787;SDS011;72529;51.786;4.662;2024-01-15T05:25:50;1.84;;;1.42;;
82787;SDS011;72529;51.786;4.662;2024-01-15T05:28:15;1.89;;;1.48;;
82787;SDS011;72529;51.786;4.662;2024-01-15T05:30:41;2.04;;;1.60;;
82787;SDS011;72529;51.786;4.662;2024-01-15T05:33:06;2.03;;;1.61;;
82787;SDS011;72529;51.786;4.662;2024-01-15T05:35:32;1.31;;;1.04;;
82787;SDS011;72529;51.786;4.662;2024-01-15T05:37:58;1.63;;;1.30;;
82787;SDS011;72529;51.786;4.662;2024-01-15T05:40:24;1.57;;;1.24;;
82787;SDS011;72529;51.786;4.662;2024-01-15T05:42:49;1.83;;;1.45;;
82787;SDS011;72529;51.786;4.662;2024-01-15T05:45:15;2.40;;;1.92;;
82787;SDS011;72529;51.786;4.662;2024-01-15T05:47:40;2.26;;;1.86;;
82787;SDS011;72529;51.786;4.662;2024-01-15T05:50:05;2.54;;;2.16;;
82787;SDS011;72529;51.786;4.662;2024-01-15T05:52:32;2.72;;;2.34;;
82787;SDS011;72529;51.786;4.662;2024-01-15T05:54:57;2.65;;;2.37;;
82787;SDS011;72529;51.786;4.662;2024-01-15T05:57:23;2.44;;;2.24;;
82787;SDS011;72529;51.786;4.662;2024-01-15T05:59:48;2.58;;;2.40;;
82787;SDS011;72529;51.786;4.662;2024-01-15T06:02:14;2.36;;;2.24;;
82787;SDS011;72529;51.786;4.662;2024-01-15T06:04:39;2.36;;;2.26;;
82787;SDS011;72529;51.786;4.662;2024-01-15T06:07:05;2.19;;;2.12;;
82787;SDS011;72529;51.786;4.662;2024-01-15T06:09:30;2.19;;;2.12;;
82787;SDS011;72529;51.786;4.662;2024-01-15T06:11:56;2.24;;;2.17;;
82787;SDS011;72529;51.786;4.662;2024-01-15T06:14:22;2.05;;;1.98;;
82787;SDS011;72529;51.786;4.662;2024-01-15T06:16:47;2.02;;;1.96;;
82787;SDS011;72529;51.786;4.662;2024-01-15T06:19:12;2.12;;;2.05;;
82787;SDS011;72529;51.786;4.662;2024-01-15T06:21:38;1.93;;;1.88;;
82787;SDS011;72529;51.786;4.662;2024-01-15T06:24:03;2.40;;;2.31;;
82787;SDS011;72529;51.786;4.662;2024-01-15T06:26:29;2.07;;;1.97;;
82787;SDS011;72529;51.786;4.662;2024-01-15T06:28:54;2.84;;;2.71;;
82787;SDS011;72529;51.786;4.662;2024-01-15T06:31:20;3.42;;;3.27;;
82787;SDS011;72529;51.786;4.662;2024-01-15T06:33:46;2.65;;;2.53;;
82787;SDS011;72529;51.786;4.662;2024-01-15T06:36:13;2.04;;;1.96;;
82787;SDS011;72529;51.786;4.662;2024-01-15T06:38:39;1.89;;;1.77;;
82787;SDS011;72529;51.786;4.662;2024-01-15T06:41:04;1.80;;;1.65;;
82787;SDS011;72529;51.786;4.662;2024-01-15T06:43:30;2.18;;;1.96;;
82787;SDS011;72529;51.786;4.662;2024-01-15T06:45:55;1.99;;;1.78;;
82787;SDS011;72529;51.786;4.662;2024-01-15T06:48:20;1.75;;;1.53;;
82787;SDS011;72529;51.786;4.662;2024-01-15T06:50:46;1.89;;;1.64;;
82787;SDS011;72529;51.786;4.662;2024-01-15T06:53:11;1.72;;;1.48;;
82787;SDS011;72529;51.786;4.662;2024-01-15T06:55:37;1.68;;;1.45;;
82787;SDS011;72529;51.786;4.662;2024-01-15T06:58:04;1.76;;;1.52;;
82787;SDS011;72529;51.786;4.662;2024-01-15T07:00:29;2.39;;;2.10;;
82787;SDS011;72529;51.786;4.662;2024-01-15T07:02:55;2.37;;;2.11;;
82787;SDS011;72529;51.786;4.662;2024-01-15T07:05:21;2.58;;;2.33;;
82787;SDS011;72529;51.786;4.662;2024-01-15T07:07:46;2.83;;;2.59;;
82787;SDS011;72529;51.786;4.662;2024-01-15T07:10:12;2.90;;;2.69;;
82787;SDS011;72529;51.786;4.662;2024-01-15T07:12:38;2.29;;;2.13;;
82787;SDS011;72529;51.786;4.662;2024-01-15T07:15:04;1.81;;;1.68;;
82787;SDS011;72529;51.786;4.662;2024-01-15T07:17:32;1.75;;;1.60;;
82787;SDS011;72529;51.786;4.662;2024-01-15T07:19:57;1.80;;;1.64;;
82787;SDS011;72529;51.786;4.662;2024-01-15T07:22:23;2.18;;;1.96;;
82787;SDS011;72529;51.786;4.662;2024-01-15T07:24:48;2.08;;;1.85;;
82787;SDS011;72529;51.786;4.662;2024-01-15T07:27:13;2.32;;;2.06;;
82787;SDS011;72529;51.786;4.662;2024-01-15T07:29:39;2.84;;;2.57;;
82787;SDS011;72529;51.786;4.662;2024-01-15T07:32:04;4.03;;;3.75;;
82787;SDS011;72529;51.786;4.662;2024-01-15T07:34:30;2.89;;;2.73;;
82787;SDS011;72529;51.786;4.662;2024-01-15T07:36:57;2.07;;;1.96;;
82787;SDS011;72529;51.786;4.662;2024-01-15T07:39:22;2.12;;;1.98;;
82787;SDS011;72529;51.786;4.662;2024-01-15T07:41:49;1.83;;;1.68;;
82787;SDS011;72529;51.786;4.662;2024-01-15T07:44:15;2.12;;;1.92;;
82787;SDS011;72529;51.786;4.662;2024-01-15T07:46:44;2.18;;;1.97;;
82787;SDS011;72529;51.786;4.662;2024-01-15T07:49:10;2.39;;;2.15;;
82787;SDS011;72529;51.786;4.662;2024-01-15T07:51:36;2.56;;;2.28;;
82787;SDS011;72529;51.786;4.662;2024-01-15T07:54:02;2.49;;;2.22;;
82787;SDS011;72529;51.786;4.662;2024-01-15T07:56:27;2.06;;;1.86;;
82787;SDS011;72529;51.786;4.662;2024-01-15T07:58:53;2.27;;;2.01;;
82787;SDS011;72529;51.786;4.662;2024-01-15T08:01:18;2.41;;;2.10;;
82787;SDS011;72529;51.786;4.662;2024-01-15T08:03:44;2.90;;;2.45;;
82787;SDS011;72529;51.786;4.662;2024-01-15T08:06:09;3.00;;;2.50;;
82787;SDS011;72529;51.786;4.662;2024-01-15T08:08:35;2.61;;;2.13;;
82787;SDS011;72529;51.786;4.662;2024-01-15T08:11:02;2.95;;;2.36;;
82787;SDS011;72529;51.786;4.662;2024-01-15T08:13:27;2.83;;;2.20;;
82787;SDS011;72529;51.786;4.662;2024-01-15T08:15:53;2.94;;;2.24;;
82787;SDS011;72529;51.786;4.662;2024-01-15T08:18:18;2.69;;;2.01;;
82787;SDS011;72529;51.786;4.662;2024-01-15T08:20:45;2.91;;;2.14;;
82787;SDS011;72529;51.786;4.662;2024-01-15T08:23:11;2.96;;;2.14;;
82787;SDS011;72529;51.786;4.662;2024-01-15T08:25:36;2.87;;;2.12;;
82787;SDS011;72529;51.786;4.662;2024-01-15T08:28:01;3.15;;;2.32;;
82787;SDS011;72529;51.786;4.662;2024-01-15T08:30:27;3.05;;;2.22;;
82787;SDS011;72529;51.786;4.662;2024-01-15T08:32:56;3.63;;;2.57;;
82787;SDS011;72529;51.786;4.662;2024-01-15T08:35:22;3.93;;;2.70;;
82787;SDS011;72529;51.786;4.662;2024-01-15T08:37:48;4.39;;;2.97;;
82787;SDS011;72529;51.786;4.662;2024-01-15T08:40:15;3.87;;;2.63;;
82787;SDS011;72529;51.786;4.662;2024-01-15T08:42:41;4.18;;;2.88;;
82787;SDS011;72529;51.786;4.662;2024-01-15T08:45:06;4.46;;;3.05;;
82787;SDS011;72529;51.786;4.662;2024-01-15T08:47:32;4.10;;;2.81;;
82787;SDS011;72529;51.786;4.662;2024-01-15T08:49:57;4.77;;;3.29;;
82787;SDS011;72529;51.786;4.662;2024-01-15T08:52:24;4.32;;;3.02;;
82787;SDS011;72529;51.786;4.662;2024-01-15T08:54:49;4.65;;;3.26;;
82787;SDS011;72529;51.786;4.662;2024-01-15T08:57:15;4.14;;;2.92;;
82787;SDS011;72529;51.786;4.662;2024-01-15T08:59:40;3.65;;;2.64;;
82787;SDS011;72529;51.786;4.662;2024-01-15T09:02:06;3.63;;;2.60;;
82787;SDS011;72529;51.786;4.662;2024-01-15T09:04:32;4.08;;;2.89;;
82787;SDS011;72529;51.786;4.662;2024-01-15T09:06:58;4.29;;;3.02;;
82787;SDS011;72529;51.786;4.662;2024-01-15T09:09:24;4.60;;;3.15;;
82787;SDS011;72529;51.786;4.662;2024-01-15T09:11:50;4.06;;;2.77;;
82787;SDS011;72529;51.786;4.662;2024-01-15T09:14:16;4.32;;;3.00;;
82787;SDS011;72529;51.786;4.662;2024-01-15T09:16:41;4.46;;;3.11;;
82787;SDS011;72529;51.786;4.662;2024-01-15T09:19:07;4.31;;;3.01;;
82787;SDS011;72529;51.786;4.662;2024-01-15T09:21:32;4.79;;;3.32;;
82787;SDS011;72529;51.786;4.662;2024-01-15T09:23:58;4.57;;;3.13;;
82787;SDS011;72529;51.786;4.662;2024-01-15T09:26:23;4.70;;;3.21;;
82787;SDS011;72529;51.786;4.662;2024-01-15T09:28:49;5.35;;;3.56;;
82787;SDS011;72529;51.786;4.662;2024-01-15T09:31:14;5.13;;;3.43;;
82787;SDS011;72529;51.786;4.662;2024-01-15T09:33:42;4.06;;;2.71;;
82787;SDS011;72529;51.786;4.662;2024-01-15T09:36:08;4.01;;;2.64;;
82787;SDS011;72529;51.786;4.662;2024-01-15T09:38:33;3.93;;;2.59;;
82787;SDS011;72529;51.786;4.662;2024-01-15T09:40:59;3.68;;;2.43;;
82787;SDS011;72529;51.786;4.662;2024-01-15T09:43:24;3.38;;;2.22;;
82787;SDS011;72529;51.786;4.662;2024-01-15T09:45:50;3.63;;;2.40;;
82787;SDS011;72529;51.786;4.662;2024-01-15T09:48:16;4.21;;;2.82;;
82787;SDS011;72529;51.786;4.662;2024-01-15T09:50:42;4.40;;;2.97;;
82787;SDS011;72529;51.786;4.662;2024-01-15T09:53:08;4.00;;;2.73;;
82787;SDS011;72529;51.786;4.662;2024-01-15T09:55:35;4.16;;;2.82;;
82787;SDS011;72529;51.786;4.662;2024-01-15T09:58:03;8.28;;;5.85;;
82787;SDS011;72529;51.786;4.662;2024-01-15T10:00:29;3.77;;;2.74;;
82787;SDS011;72529;51.786;4.662;2024-01-15T10:02:57;3.85;;;2.73;;
82787;SDS011;72529;51.786;4.662;2024-01-15T10:05:25;3.61;;;2.50;;
82787;SDS011;72529;51.786;4.662;2024-01-15T10:07:52;3.34;;;2.26;;
82787;SDS011;72529;51.786;4.662;2024-01-15T10:10:21;3.59;;;2.41;;
82787;SDS011;72529;51.786;4.662;2024-01-15T10:12:47;3.51;;;2.36;;
82787;SDS011;72529;51.786;4.662;2024-01-15T10:15:14;3.63;;;2.49;;
82787;SDS011;72529;51.786;4.662;2024-01-15T10:17:39;3.65;;;2.50;;
82787;SDS011;72529;51.786;4.662;2024-01-15T10:20:11;3.28;;;2.23;;
82787;SDS011;72529;51.786;4.662;2024-01-15T10:22:40;3.70;;;2.48;;
82787;SDS011;72529;51.786;4.662;2024-01-15T10:25:11;3.88;;;2.60;;
82787;SDS011;72529;51.786;4.662;2024-01-15T10:27:38;4.38;;;2.96;;
82787;SDS011;72529;51.786;4.662;2024-01-15T10:30:05;3.73;;;2.52;;
82787;SDS011;72529;51.786;4.662;2024-01-15T10:32:31;4.52;;;3.00;;
82787;SDS011;72529;51.786;4.662;2024-01-15T10:34:57;4.28;;;2.85;;
82787;SDS011;72529;51.786;4.662;2024-01-15T10:37:23;4.45;;;3.06;;
82787;SDS011;72529;51.786;4.662;2024-01-15T10:39:49;3.43;;;2.47;;
82787;SDS011;72529;51.786;4.662;2024-01-15T10:42:16;3.09;;;2.24;;
82787;SDS011;72529;51.786;4.662;2024-01-15T10:44:43;3.82;;;2.83;;
82787;SDS011;72529;51.786;4.662;2024-01-15T10:47:09;3.42;;;2.55;;
82787;SDS011;72529;51.786;4.662;2024-01-15T10:49:37;3.22;;;2.42;;
82787;SDS011;72529;51.786;4.662;2024-01-15T10:52:02;2.47;;;1.85;;
82787;SDS011;72529;51.786;4.662;2024-01-15T10:54:29;2.87;;;2.14;;
82787;SDS011;72529;51.786;4.662;2024-01-15T10:56:57;3.02;;;2.26;;
82787;SDS011;72529;51.786;4.662;2024-01-15T10:59:23;3.03;;;2.25;;
82787;SDS011;72529;51.786;4.662;2024-01-15T11:01:49;2.63;;;1.98;;
82787;SDS011;72529;51.786;4.662;2024-01-15T11:04:20;2.76;;;2.12;;
82787;SDS011;72529;51.786;4.662;2024-01-15T11:06:48;3.15;;;2.36;;
82787;SDS011;72529;51.786;4.662;2024-01-15T11:09:15;3.75;;;2.77;;
82787;SDS011;72529;51.786;4.662;2024-01-15T11:11:46;3.17;;;2.34;;
82787;SDS011;72529;51.786;4.662;2024-01-15T11:17:11;3.42;;;2.46;;
82787;SDS011;72529;51.786;4.662;2024-01-15T11:19:38;3.40;;;2.44;;
82787;SDS011;72529;51.786;4.662;2024-01-15T11:24:54;3.03;;;2.22;;
82787;SDS011;72529;51.786;4.662;2024-01-15T11:27:39;3.14;;;2.27;;
82787;SDS011;72529;51.786;4.662;2024-01-15T11:30:10;3.73;;;2.62;;
82787;SDS011;72529;51.786;4.662;2024-01-15T11:32:37;3.25;;;2.29;;
82787;SDS011;72529;51.786;4.662;2024-01-15T11:35:07;3.91;;;2.79;;
82787;SDS011;72529;51.786;4.662;2024-01-15T11:40:19;3.72;;;2.82;;
82787;SDS011;72529;51.786;4.662;2024-01-15T11:42:46;2.96;;;2.29;;
82787;SDS011;72529;51.786;4.662;2024-01-15T11:45:13;2.92;;;2.28;;
82787;SDS011;72529;51.786;4.662;2024-01-15T11:50:42;2.65;;;2.07;;
82787;SDS011;72529;51.786;4.662;2024-01-15T11:53:17;2.42;;;1.90;;
82787;SDS011;72529;51.786;4.662;2024-01-15T11:55:50;2.65;;;2.05;;
82787;SDS011;72529;51.786;4.662;2024-01-15T11:58:17;2.54;;;2.01;;
82787;SDS011;72529;51.786;4.662;2024-01-15T12:00:44;2.85;;;2.26;;
82787;SDS011;72529;51.786;4.662;2024-01-15T12:03:10;2.75;;;2.16;;
82787;SDS011;72529;51.786;4.662;2024-01-15T12:05:36;2.54;;;2.00;;
82787;SDS011;72529;51.786;4.662;2024-01-15T12:08:03;2.79;;;2.20;;
82787;SDS011;72529;51.786;4.662;2024-01-15T12:10:35;2.86;;;2.26;;
82787;SDS011;72529;51.786;4.662;2024-01-15T12:13:05;2.90;;;2.22;;
82787;SDS011;72529;51.786;4.662;2024-01-15T12:15:34;2.82;;;2.11;;
82787;SDS011;72529;51.786;4.662;2024-01-15T12:18:00;2.83;;;2.09;;
82787;SDS011;72529;51.786;4.662;2024-01-15T12:20:28;3.58;;;2.61;;
82787;SDS011;72529;51.786;4.662;2024-01-15T12:22:57;4.54;;;3.35;;
82787;SDS011;72529;51.786;4.662;2024-01-15T12:25:23;4.46;;;3.42;;
82787;SDS011;72529;51.786;4.662;2024-01-15T12:27:50;2.74;;;2.22;;
82787;SDS011;72529;51.786;4.662;2024-01-15T12:30:16;2.74;;;2.19;;
82787;SDS011;72529;51.786;4.662;2024-01-15T12:32:42;2.95;;;2.26;;
82787;SDS011;72529;51.786;4.662;2024-01-15T12:35:08;3.09;;;2.28;;
82787;SDS011;72529;51.786;4.662;2024-01-15T12:37:35;3.10;;;2.24;;
82787;SDS011;72529;51.786;4.662;2024-01-15T12:40:02;3.38;;;2.39;;
82787;SDS011;72529;51.786;4.662;2024-01-15T12:42:31;4.00;;;2.79;;
82787;SDS011;72529;51.786;4.662;2024-01-15T12:44:57;4.33;;;3.02;;
82787;SDS011;72529;51.786;4.662;2024-01-15T12:47:23;5.11;;;3.60;;
82787;SDS011;72529;51.786;4.662;2024-01-15T12:49:51;4.76;;;3.39;;
82787;SDS011;72529;51.786;4.662;2024-01-15T12:52:19;4.18;;;3.03;;
82787;SDS011;72529;51.786;4.662;2024-01-15T12:54:46;3.80;;;2.72;;
82787;SDS011;72529;51.786;4.662;2024-01-15T12:57:16;4.48;;;3.13;;
82787;SDS011;72529;51.786;4.662;2024-01-15T12:59:45;4.93;;;3.46;;
82787;SDS011;72529;51.786;4.662;2024-01-15T13:02:14;4.19;;;3.04;;
82787;SDS011;72529;51.786;4.662;2024-01-15T13:04:39;3.71;;;2.77;;
82787;SDS011;72529;51.786;4.662;2024-01-15T13:07:08;3.43;;;2.59;;
82787;SDS011;72529;51.786;4.662;2024-01-15T13:09:34;3.69;;;2.79;;
82787;SDS011;72529;51.786;4.662;2024-01-15T13:12:00;4.24;;;3.24;;
82787;SDS011;72529;51.786;4.662;2024-01-15T13:14:27;4.04;;;3.15;;
82787;SDS011;72529;51.786;4.662;2024-01-15T13:16:53;3.38;;;2.62;;
82787;SDS011;72529;51.786;4.662;2024-01-15T13:19:19;4.20;;;3.22;;
82787;SDS011;72529;51.786;4.662;2024-01-15T13:21:46;3.60;;;2.73;;
82787;SDS011;72529;51.786;4.662;2024-01-15T13:24:11;3.91;;;2.93;;
82787;SDS011;72529;51.786;4.662;2024-01-15T13:26:37;4.38;;;3.24;;
82787;SDS011;72529;51.786;4.662;2024-01-15T13:29:03;4.79;;;3.57;;
82787;SDS011;72529;51.786;4.662;2024-01-15T13:31:32;4.38;;;3.45;;
82787;SDS011;72529;51.786;4.662;2024-01-15T13:33:58;4.41;;;3.52;;
82787;SDS011;72529;51.786;4.662;2024-01-15T13:36:25;4.25;;;3.28;;
82787;SDS011;72529;51.786;4.662;2024-01-15T13:38:51;4.77;;;3.60;;
82787;SDS011;72529;51.786;4.662;2024-01-15T13:41:23;3.87;;;2.88;;
82787;SDS011;72529;51.786;4.662;2024-01-15T13:43:52;4.18;;;2.98;;
82787;SDS011;72529;51.786;4.662;2024-01-15T13:46:23;3.70;;;2.60;;
82787;SDS011;72529;51.786;4.662;2024-01-15T13:48:51;3.80;;;2.70;;
82787;SDS011;72529;51.786;4.662;2024-01-15T13:51:17;4.12;;;2.95;;
82787;SDS011;72529;51.786;4.662;2024-01-15T13:53:42;2.69;;;1.93;;
82787;SDS011;72529;51.786;4.662;2024-01-15T13:56:08;2.86;;;2.03;;
82787;SDS011;72529;51.786;4.662;2024-01-15T13:58:35;3.19;;;2.21;;
82787;SDS011;72529;51.786;4.662;2024-01-15T14:01:00;2.93;;;2.02;;
82787;SDS011;72529;51.786;4.662;2024-01-15T14:03:26;3.02;;;2.07;;
82787;SDS011;72529;51.786;4.662;2024-01-15T14:05:52;2.36;;;1.63;;
82787;SDS011;72529;51.786;4.662;2024-01-15T14:08:18;2.64;;;1.83;;
82787;SDS011;72529;51.786;4.662;2024-01-15T14:10:43;2.74;;;1.92;;
82787;SDS011;72529;51.786;4.662;2024-01-15T14:13:09;2.56;;;1.81;;
82787;SDS011;72529;51.786;4.662;2024-01-15T14:15:34;2.73;;;1.95;;
82787;SDS011;72529;51.786;4.662;2024-01-15T14:18:00;4.89;;;3.65;;
82787;SDS011;72529;51.786;4.662;2024-01-15T14:20:26;2.60;;;1.99;;
82787;SDS011;72529;51.786;4.662;2024-01-15T14:22:52;5.81;;;4.47;;
82787;SDS011;72529;51.786;4.662;2024-01-15T14:25:18;2.95;;;2.32;;
82787;SDS011;72529;51.786;4.662;2024-01-15T14:27:43;3.50;;;2.68;;
82787;SDS011;72529;51.786;4.662;2024-01-15T14:30:09;3.31;;;2.47;;
82787;SDS011;72529;51.786;4.662;2024-01-15T14:32:35;4.10;;;3.04;;
82787;SDS011;72529;51.786;4.662;2024-01-15T14:35:00;3.51;;;2.56;;
82787;SDS011;72529;51.786;4.662;2024-01-15T14:37:25;3.50;;;2.57;;
82787;SDS011;72529;51.786;4.662;2024-01-15T14:39:51;3.94;;;2.91;;
82787;SDS011;72529;51.786;4.662;2024-01-15T14:42:17;4.24;;;3.27;;
82787;SDS011;72529;51.786;4.662;2024-01-15T14:44:42;3.92;;;3.14;;
82787;SDS011;72529;51.786;4.662;2024-01-15T14:47:08;3.75;;;3.02;;
82787;SDS011;72529;51.786;4.662;2024-01-15T14:49:33;3.15;;;2.54;;
82787;SDS011;72529;51.786;4.662;2024-01-15T14:51:59;3.49;;;2.84;;
82787;SDS011;72529;51.786;4.662;2024-01-15T14:54:24;4.22;;;3.32;;